createdAt,value
2022-08-23T00:01:34.424Z,23.64
2022-08-23T00:04:06.589Z,23.64
2022-08-23T00:06:33.189Z,23.66
2022-08-23T00:08:59.760Z,23.57
2022-08-23T00:11:43.304Z,23.46
2022-08-23T00:14:17.098Z,23.49
2022-08-23T00:16:44.200Z,23.52
2022-08-23T00:19:13.089Z,23.53
2022-08-23T00:21:41.207Z,23.53
2022-08-23T00:24:11.954Z,23.54
2022-08-23T00:27:04.462Z,23.49
2022-08-23T00:29:43.637Z,23.53
2022-08-23T00:32:13.445Z,23.55
2022-08-23T00:34:40.600Z,23.56
2022-08-23T00:37:08.982Z,23.59
2022-08-23T00:39:35.920Z,23.61
2022-08-23T00:42:32.367Z,23.59
2022-08-23T00:45:21.042Z,23.61
2022-08-23T00:47:48.345Z,23.59
2022-08-23T00:50:34.729Z,23.54
2022-08-23T00:53:12.833Z,23.57
2022-08-23T00:55:42.391Z,23.58
2022-08-23T00:58:09.340Z,23.52
2022-08-23T01:00:37.150Z,23.53
2022-08-23T01:03:07.642Z,23.55
2022-08-23T01:05:46.636Z,23.54
2022-08-23T01:08:13.401Z,23.57
2022-08-23T01:10:47.324Z,23.58
2022-08-23T01:13:23.387Z,23.57
2022-08-23T01:15:55.745Z,23.60
2022-08-23T01:18:26.030Z,23.57
2022-08-23T01:21:06.935Z,23.55
2022-08-23T01:23:51.922Z,23.56
2022-08-23T01:26:21.881Z,23.55
2022-08-23T01:28:51.250Z,23.55
2022-08-23T01:31:19.140Z,23.51
2022-08-23T01:33:56.894Z,23.49
2022-08-23T01:36:23.392Z,23.49
2022-08-23T01:38:52.108Z,23.49
2022-08-23T01:41:19.118Z,23.49
2022-08-23T01:43:46.210Z,23.49
2022-08-23T01:46:20.724Z,23.46
2022-08-23T01:48:49.836Z,23.44
2022-08-23T01:51:18.564Z,23.44
2022-08-23T01:53:46.594Z,23.43
2022-08-23T01:56:18.448Z,23.40
2022-08-23T01:58:44.894Z,23.41
2022-08-23T02:01:12.308Z,23.40
2022-08-23T02:03:38.832Z,23.41
2022-08-23T02:06:05.804Z,23.40
2022-08-23T02:08:52.480Z,23.40
2022-08-23T02:11:25.024Z,23.40
2022-08-23T02:13:53.127Z,23.39
2022-08-23T02:16:29.460Z,23.38
2022-08-23T02:18:56.447Z,23.38
2022-08-23T02:21:23.874Z,23.37
2022-08-23T02:23:51.548Z,23.38
2022-08-23T02:26:19.448Z,23.36
2022-08-23T02:28:50.938Z,23.35
2022-08-23T02:31:18.190Z,23.34
2022-08-23T02:36:32.163Z,23.32
2022-08-23T02:38:59.390Z,23.30
2022-08-23T02:41:27.693Z,23.26
2022-08-23T02:43:54.880Z,23.24
2022-08-23T02:46:23.499Z,23.19
2022-08-23T02:48:51.696Z,23.18
2022-08-23T02:51:18.953Z,23.17
2022-08-23T02:53:45.658Z,23.17
2022-08-23T02:56:21.530Z,23.18
2022-08-23T02:58:54.404Z,23.17
2022-08-23T03:01:26.485Z,23.16
2022-08-23T03:03:55.302Z,23.14
2022-08-23T03:06:25.325Z,23.10
2022-08-23T03:08:53.032Z,23.09
2022-08-23T03:11:23.575Z,23.09
2022-08-23T03:13:53.516Z,23.07
2022-08-23T03:16:20.737Z,23.07
2022-08-23T03:18:48.678Z,23.07
2022-08-23T03:21:17.017Z,23.02
2022-08-23T03:23:43.666Z,23.03
2022-08-23T03:26:12.908Z,23.02
2022-08-23T03:28:41.531Z,23.01
2022-08-23T03:31:09.997Z,23.02
2022-08-23T03:33:46.583Z,23.01
2022-08-23T03:36:13.631Z,22.97
2022-08-23T03:38:41.657Z,22.95
2022-08-23T03:41:10.267Z,22.95
2022-08-23T03:43:37.569Z,22.96
2022-08-23T03:46:06.206Z,22.96
2022-08-23T03:48:35.186Z,22.96
2022-08-23T03:51:01.995Z,22.96
2022-08-23T03:53:28.499Z,22.95
2022-08-23T03:55:56.284Z,22.94
2022-08-23T03:58:25.116Z,22.93
2022-08-23T04:00:52.273Z,22.90
2022-08-23T04:03:18.786Z,22.82
2022-08-23T04:06:00.186Z,22.81
2022-08-23T04:08:33.796Z,22.80
2022-08-23T04:11:03.465Z,22.81
2022-08-23T04:13:30.110Z,22.81
2022-08-23T04:15:58.266Z,22.81
2022-08-23T04:18:24.971Z,22.81
2022-08-23T04:20:52.661Z,22.79
2022-08-23T04:23:21.860Z,22.77
2022-08-23T04:25:53.726Z,22.72
2022-08-23T04:28:21.351Z,22.70
2022-08-23T04:30:48.574Z,22.72
2022-08-23T04:33:18.014Z,22.75
2022-08-23T04:35:45.701Z,22.74
2022-08-23T04:38:24.344Z,22.71
2022-08-23T04:41:12.676Z,22.72
2022-08-23T04:43:40.551Z,22.67
2022-08-23T04:46:07.977Z,22.65
2022-08-23T04:48:35.662Z,22.62
2022-08-23T04:51:02.635Z,22.59
2022-08-23T04:53:35.329Z,22.60
2022-08-23T04:56:20.293Z,22.58
2022-08-23T04:58:47.286Z,22.52
2022-08-23T05:01:16.070Z,22.54
2022-08-23T05:03:44.319Z,22.58
2022-08-23T05:06:11.155Z,22.60
2022-08-23T05:08:39.684Z,22.61
2022-08-23T05:11:09.941Z,22.63
2022-08-23T05:13:38.141Z,22.65
2022-08-23T05:16:06.487Z,22.69
2022-08-23T05:18:39.384Z,22.72
2022-08-23T05:21:06.409Z,22.75
2022-08-23T05:23:33.629Z,22.74
2022-08-23T05:26:03.634Z,22.78
2022-08-23T05:28:39.934Z,22.82
2022-08-23T05:31:16.312Z,22.81
2022-08-23T05:33:46.988Z,22.84
2022-08-23T05:36:18.819Z,22.85
2022-08-23T05:38:47.086Z,22.88
2022-08-23T05:41:14.396Z,22.92
2022-08-23T05:43:41.079Z,22.92
2022-08-23T05:46:13.649Z,22.87
2022-08-23T05:48:47.084Z,22.79
2022-08-23T05:51:20.908Z,22.83
2022-08-23T05:53:48.949Z,22.91
2022-08-23T05:56:31.860Z,22.90
2022-08-23T05:59:01.872Z,22.95
2022-08-23T06:01:30.407Z,22.96
2022-08-23T06:04:09.256Z,22.96
2022-08-23T06:06:37.499Z,23.09
2022-08-23T06:09:07.351Z,23.18
2022-08-23T06:11:34.928Z,23.25
2022-08-23T06:14:03.882Z,23.23
2022-08-23T06:16:34.543Z,23.17
2022-08-23T06:19:02.549Z,23.20
2022-08-23T06:21:51.125Z,23.19
2022-08-23T06:24:31.592Z,23.19
2022-08-23T06:27:11.488Z,23.16
2022-08-23T06:29:38.631Z,23.12
2022-08-23T06:32:34.980Z,23.12
2022-08-23T06:35:37.792Z,23.15
2022-08-23T06:38:22.931Z,23.25
2022-08-23T06:41:13.019Z,23.29
2022-08-23T06:43:50.616Z,23.26
2022-08-23T06:46:31.271Z,23.22
2022-08-23T06:48:59.527Z,23.19
2022-08-23T06:51:35.976Z,23.07
2022-08-23T06:54:15.184Z,23.02
2022-08-23T06:57:01.638Z,22.99
2022-08-23T06:59:31.151Z,22.98
2022-08-23T07:02:15.335Z,23.03
2022-08-23T07:04:44.820Z,23.00
2022-08-23T07:07:41.239Z,23.06
2022-08-23T07:10:12.963Z,23.13
2022-08-23T07:12:42.371Z,23.18
2022-08-23T07:15:12.786Z,23.20
2022-08-23T07:17:42.431Z,23.25
2022-08-23T07:20:09.333Z,23.29
2022-08-23T07:22:38.487Z,23.33
2022-08-23T07:25:05.352Z,23.35
2022-08-23T07:27:32.894Z,23.38
2022-08-23T07:30:05.829Z,23.43
2022-08-23T07:32:32.704Z,23.43
2022-08-23T07:35:07.757Z,23.43
2022-08-23T07:37:37.744Z,23.40
2022-08-23T07:40:07.185Z,23.35
2022-08-23T07:42:34.049Z,23.39
2022-08-23T07:45:00.472Z,23.40
2022-08-23T07:47:28.597Z,23.44
2022-08-23T07:49:56.840Z,23.51
2022-08-23T07:52:23.590Z,23.62
2022-08-23T07:54:50.246Z,23.72
2022-08-23T07:57:49.317Z,23.82
2022-08-23T08:00:45.278Z,23.83
2022-08-23T08:03:34.291Z,23.88
2022-08-23T08:06:22.735Z,23.91
2022-08-23T08:08:50.054Z,23.92
2022-08-23T08:11:18.814Z,23.96
2022-08-23T08:13:46.811Z,24.04
2022-08-23T08:16:23.516Z,24.08
2022-08-23T08:18:50.860Z,24.13
2022-08-23T08:21:45.475Z,24.16
2022-08-23T08:24:32.184Z,24.17
2022-08-23T08:27:04.359Z,24.20
2022-08-23T08:29:30.795Z,24.25
2022-08-23T08:31:57.565Z,24.28
2022-08-23T08:34:24.641Z,24.28
2022-08-23T08:36:54.080Z,24.33
2022-08-23T08:39:26.563Z,24.45
2022-08-23T08:42:26.573Z,24.51
2022-08-23T08:44:56.803Z,24.55
2022-08-23T08:47:40.368Z,24.60
2022-08-23T08:50:12.547Z,24.62
2022-08-23T08:52:45.160Z,24.70
2022-08-23T08:55:24.900Z,24.79
2022-08-23T08:57:55.160Z,24.89
2022-08-23T09:00:26.503Z,25.00
2022-08-23T09:02:55.093Z,25.09
2022-08-23T09:05:31.488Z,25.13
2022-08-23T09:08:07.296Z,25.18
2022-08-23T09:11:16.343Z,25.21
2022-08-23T09:14:08.250Z,25.37
2022-08-23T09:16:49.953Z,25.46
2022-08-23T09:19:18.972Z,25.55
2022-08-23T09:21:54.809Z,25.68
2022-08-23T09:24:22.079Z,25.79
2022-08-23T09:26:57.583Z,25.86
2022-08-23T09:29:33.311Z,25.95
2022-08-23T09:32:06.500Z,25.94
2022-08-23T09:34:36.168Z,26.00
2022-08-23T09:37:15.246Z,26.11
2022-08-23T09:39:49.605Z,26.14
2022-08-23T09:42:37.400Z,26.21
2022-08-23T09:45:35.546Z,26.35
2022-08-23T09:48:06.234Z,26.47
2022-08-23T09:50:54.681Z,26.56
2022-08-23T09:53:28.152Z,26.72
2022-08-23T09:55:58.537Z,26.78
2022-08-23T09:58:40.429Z,26.85
2022-08-23T10:01:20.635Z,26.85
2022-08-23T10:04:08.322Z,26.90
2022-08-23T10:06:35.093Z,27.04
2022-08-23T10:09:07.852Z,27.17
2022-08-23T10:11:41.937Z,27.35
2022-08-23T10:14:09.743Z,27.56
2022-08-23T10:17:08.213Z,27.81
2022-08-23T10:19:49.627Z,28.05
2022-08-23T10:22:31.361Z,28.33
2022-08-23T10:25:26.291Z,28.71
2022-08-23T10:28:31.022Z,29.18
2022-08-23T10:31:21.882Z,29.87
2022-08-23T10:34:26.421Z,30.57
2022-08-23T10:37:27.631Z,31.72
2022-08-23T10:40:11.212Z,33.74
2022-08-23T10:42:53.252Z,36.43
2022-08-23T10:45:31.484Z,38.78
2022-08-23T10:48:28.751Z,40.49
2022-08-23T10:50:59.337Z,41.03
2022-08-23T10:54:00.101Z,41.94
2022-08-23T10:56:28.143Z,43.52
2022-08-23T10:59:00.164Z,44.65
2022-08-23T11:01:45.286Z,45.16
2022-08-23T11:04:48.386Z,46.10
2022-08-23T11:07:28.054Z,47.31
2022-08-23T11:10:05.276Z,48.06
2022-08-23T11:12:35.713Z,48.66
2022-08-23T11:15:12.637Z,49.15
2022-08-23T11:17:49.346Z,49.70
2022-08-23T11:20:51.018Z,49.83
2022-08-23T11:23:40.664Z,49.11
2022-08-23T11:26:10.793Z,48.81
2022-08-23T11:28:42.108Z,48.78
2022-08-23T11:31:08.843Z,49.30
2022-08-23T11:34:02.892Z,49.72
2022-08-23T11:36:31.050Z,50.63
2022-08-23T11:38:57.466Z,50.82
2022-08-23T11:41:32.466Z,50.66
2022-08-23T11:44:02.040Z,50.93
2022-08-23T11:46:31.337Z,51.30
2022-08-23T11:49:29.759Z,50.27
2022-08-23T11:52:21.394Z,49.34
2022-08-23T11:55:14.699Z,50.35
2022-08-23T11:58:07.764Z,50.69
2022-08-23T12:00:59.346Z,52.00
2022-08-23T12:03:36.254Z,53.19
2022-08-23T12:06:04.895Z,53.91
2022-08-23T12:08:49.351Z,54.04
2022-08-23T12:11:18.664Z,54.16
2022-08-23T12:13:55.399Z,54.78
2022-08-23T12:16:23.922Z,54.80
2022-08-23T12:18:50.382Z,54.59
2022-08-23T12:21:19.398Z,55.08
2022-08-23T12:23:50.404Z,55.53
2022-08-23T12:26:28.800Z,55.91
2022-08-23T12:29:17.417Z,56.30
2022-08-23T12:32:15.428Z,56.56
2022-08-23T12:35:16.343Z,56.81
2022-08-23T12:38:02.749Z,56.73
2022-08-23T12:40:37.079Z,56.87
2022-08-23T12:43:19.762Z,57.26
2022-08-23T12:45:53.245Z,57.34
2022-08-23T12:48:23.178Z,57.45
2022-08-23T12:50:57.735Z,57.50
2022-08-23T12:53:30.214Z,57.41
2022-08-23T12:56:17.293Z,57.46
2022-08-23T12:58:52.171Z,57.63
2022-08-23T13:01:31.057Z,57.57
2022-08-23T13:04:08.199Z,57.73
2022-08-23T13:06:42.309Z,57.35
2022-08-23T13:09:19.210Z,56.51
2022-08-23T13:11:47.260Z,56.13
2022-08-23T13:14:31.331Z,55.86
2022-08-23T13:17:13.208Z,56.44
2022-08-23T13:19:39.796Z,56.85
2022-08-23T13:22:20.422Z,57.12
2022-08-23T13:25:27.489Z,57.31
2022-08-23T13:27:55.334Z,57.10
2022-08-23T13:30:29.586Z,56.53
2022-08-23T13:33:08.523Z,55.53
2022-08-23T13:35:35.351Z,53.98
2022-08-23T13:38:02.371Z,51.75
2022-08-23T13:40:32.455Z,49.39
2022-08-23T13:43:05.597Z,47.45
2022-08-23T13:45:48.797Z,45.76
2022-08-23T13:48:28.777Z,44.34
2022-08-23T13:51:23.970Z,43.49
2022-08-23T13:53:50.545Z,42.92
2022-08-23T13:56:17.148Z,42.29
2022-08-23T13:58:53.006Z,41.65
2022-08-23T14:01:20.147Z,41.27
2022-08-23T14:03:46.701Z,41.00
2022-08-23T14:06:13.543Z,40.57
2022-08-23T14:08:40.338Z,39.88
2022-08-23T14:11:07.350Z,39.31
2022-08-23T14:13:34.086Z,38.73
2022-08-23T14:21:38.568Z,37.36
2022-08-23T14:24:05.393Z,37.20
2022-08-23T14:26:31.920Z,36.99
2022-08-23T14:28:58.451Z,36.82
2022-08-23T14:31:25.268Z,36.65
2022-08-23T14:33:51.755Z,36.45
2022-08-23T14:36:18.606Z,36.17
2022-08-23T14:38:45.727Z,35.86
2022-08-23T14:41:23.525Z,35.64
2022-08-23T14:43:50.798Z,35.44
2022-08-23T14:46:17.446Z,35.31
2022-08-23T14:48:43.963Z,35.13
2022-08-23T14:51:25.802Z,34.97
2022-08-23T14:53:52.795Z,34.74
2022-08-23T14:56:21.737Z,34.60
2022-08-23T14:58:49.442Z,34.54
2022-08-23T15:01:17.163Z,34.40
2022-08-23T15:03:44.320Z,34.20
2022-08-23T15:06:13.048Z,34.19
2022-08-23T15:08:39.612Z,34.25
2022-08-23T15:13:56.379Z,34.08
2022-08-23T15:16:23.862Z,34.05
2022-08-23T15:18:52.002Z,34.05
2022-08-23T15:21:19.095Z,34.01
2022-08-23T15:23:45.996Z,33.95
2022-08-23T15:26:14.530Z,33.89
2022-08-23T15:28:41.270Z,33.79
2022-08-23T15:31:08.746Z,33.53
2022-08-23T15:33:35.262Z,33.34
2022-08-23T15:36:04.995Z,33.26
2022-08-23T15:38:32.050Z,33.27
2022-08-23T15:40:58.629Z,33.23
2022-08-23T15:43:34.012Z,33.17
2022-08-23T15:46:05.412Z,33.05
2022-08-23T15:48:41.438Z,32.91
2022-08-23T15:51:08.048Z,32.83
2022-08-23T15:53:36.849Z,32.74
2022-08-23T15:56:08.485Z,32.60
2022-08-23T15:58:37.895Z,32.46
2022-08-23T16:01:06.303Z,32.33
2022-08-23T16:03:33.105Z,32.22
2022-08-23T16:05:59.764Z,32.19
2022-08-23T16:08:29.243Z,32.21
2022-08-23T16:10:57.137Z,32.17
2022-08-23T16:13:27.017Z,32.09
2022-08-23T16:15:54.027Z,32.03
2022-08-23T16:18:20.512Z,31.99
2022-08-23T16:20:47.452Z,31.87
2022-08-23T16:23:13.980Z,31.81
2022-08-23T16:25:41.841Z,31.66
2022-08-23T16:28:08.721Z,31.64
2022-08-23T16:30:35.470Z,31.58
2022-08-23T16:33:02.266Z,31.49
2022-08-23T16:35:28.936Z,31.43
2022-08-23T16:37:55.495Z,31.37
2022-08-23T16:40:22.625Z,31.35
2022-08-23T16:42:49.130Z,31.28
2022-08-23T16:45:16.076Z,31.28
2022-08-23T16:47:51.701Z,31.30
2022-08-23T16:50:18.227Z,31.24
2022-08-23T16:52:44.625Z,31.20
2022-08-23T16:55:12.460Z,31.13
2022-08-23T16:57:40.080Z,31.11
2022-08-23T17:00:10.788Z,31.09
2022-08-23T17:02:39.236Z,31.08
2022-08-23T17:05:09.216Z,31.03
2022-08-23T17:07:35.716Z,30.98
2022-08-23T17:10:03.720Z,30.93
2022-08-23T17:12:31.292Z,30.88
2022-08-23T17:14:58.947Z,30.82
2022-08-23T17:17:25.599Z,30.74
2022-08-23T17:19:52.215Z,30.68
2022-08-23T17:22:18.896Z,30.62
2022-08-23T17:24:45.392Z,30.58
2022-08-23T17:27:19.256Z,30.54
2022-08-23T17:29:46.228Z,30.46
2022-08-23T17:32:13.435Z,30.41
2022-08-23T17:34:40.016Z,30.37
2022-08-23T17:37:16.598Z,30.32
2022-08-23T17:39:43.425Z,30.30
2022-08-23T17:42:10.411Z,30.27
2022-08-23T17:44:37.455Z,30.24
2022-08-23T17:47:08.362Z,30.23
2022-08-23T17:49:34.808Z,30.26
2022-08-23T17:52:03.539Z,30.27
2022-08-23T17:54:30.023Z,30.27
2022-08-23T17:56:57.056Z,30.28
2022-08-23T17:59:23.612Z,30.35
2022-08-23T18:01:50.023Z,30.49
2022-08-23T18:04:16.579Z,30.72
2022-08-23T18:06:43.114Z,31.01
2022-08-23T18:09:09.765Z,31.34
2022-08-23T18:11:36.758Z,31.64
2022-08-23T18:14:04.047Z,31.83
2022-08-23T18:16:35.237Z,31.85
2022-08-23T18:19:04.230Z,31.73
2022-08-23T18:21:31.082Z,31.59
2022-08-23T18:23:58.982Z,31.38
2022-08-23T18:26:44.894Z,31.15
2022-08-23T18:29:14.269Z,30.95
2022-08-23T18:31:43.064Z,30.75
2022-08-23T18:34:11.044Z,30.57
2022-08-23T18:36:38.029Z,30.40
2022-08-23T18:39:06.336Z,30.23
2022-08-23T18:41:32.826Z,30.08
2022-08-23T18:43:59.781Z,29.91
2022-08-23T18:46:36.656Z,29.77
2022-08-23T18:49:04.312Z,29.63
2022-08-23T18:51:30.940Z,29.51
2022-08-23T18:53:58.194Z,29.38
2022-08-23T18:56:25.661Z,29.26
2022-08-23T18:58:52.505Z,29.15
2022-08-23T19:01:30.691Z,29.04
2022-08-23T19:03:59.373Z,28.97
2022-08-23T19:06:26.722Z,28.86
2022-08-23T19:08:53.673Z,28.76
2022-08-23T19:11:20.316Z,28.69
2022-08-23T19:13:47.849Z,28.62
2022-08-23T19:16:15.892Z,28.53
2022-08-23T19:18:44.813Z,28.48
2022-08-23T19:21:13.696Z,28.42
2022-08-23T19:23:40.926Z,28.35
2022-08-23T19:26:12.460Z,28.28
2022-08-23T19:28:39.251Z,28.22
2022-08-23T19:31:06.048Z,28.15
2022-08-23T19:33:33.000Z,28.11
2022-08-23T19:35:59.531Z,28.05
2022-08-23T19:38:27.733Z,27.99
2022-08-23T19:40:55.198Z,27.93
2022-08-23T19:43:22.471Z,27.88
2022-08-23T19:45:48.994Z,27.84
2022-08-23T19:48:15.576Z,27.81
2022-08-23T19:50:41.996Z,27.77
2022-08-23T19:53:09.083Z,27.72
2022-08-23T19:55:39.619Z,27.67
2022-08-23T19:58:06.408Z,27.63
2022-08-23T20:00:33.932Z,27.57
2022-08-23T20:03:00.738Z,27.53
2022-08-23T20:05:27.571Z,27.49
2022-08-23T20:07:54.874Z,27.43
2022-08-23T20:10:21.690Z,27.39
2022-08-23T20:12:48.150Z,27.36
2022-08-23T20:15:14.657Z,27.33
2022-08-23T20:17:41.536Z,27.29
2022-08-23T20:20:10.267Z,27.24
2022-08-23T20:22:55.778Z,27.22
2022-08-23T20:25:22.221Z,27.19
2022-08-23T20:27:48.846Z,27.15
2022-08-23T20:30:15.445Z,27.11
2022-08-23T20:32:42.658Z,27.09
2022-08-23T20:35:11.215Z,27.06
2022-08-23T20:37:38.381Z,27.05
2022-08-23T20:40:06.891Z,27.01
2022-08-23T20:42:33.383Z,26.97
2022-08-23T20:45:00.028Z,26.96
2022-08-23T20:47:27.586Z,26.92
2022-08-23T20:49:54.028Z,26.90
2022-08-23T20:52:20.552Z,26.88
2022-08-23T20:54:46.963Z,26.87
2022-08-23T20:57:14.540Z,26.85
2022-08-23T20:59:44.451Z,26.83
2022-08-23T21:02:12.082Z,26.79
2022-08-23T21:04:40.156Z,26.76
2022-08-23T21:07:08.123Z,26.73
2022-08-23T21:09:35.060Z,26.70
2022-08-23T21:12:01.485Z,26.69
2022-08-23T21:14:27.989Z,26.66
2022-08-23T21:16:54.560Z,26.63
2022-08-23T21:19:21.259Z,26.59
2022-08-23T21:21:47.733Z,26.55
2022-08-23T21:24:14.683Z,26.52
2022-08-23T21:26:41.423Z,26.48
2022-08-23T21:29:08.942Z,26.44
2022-08-23T21:31:36.248Z,26.41
2022-08-23T21:34:02.875Z,26.39
2022-08-23T21:36:29.665Z,26.35
2022-08-23T21:38:56.135Z,26.32
2022-08-23T21:41:33.700Z,26.28
2022-08-23T21:44:01.481Z,26.28
2022-08-23T21:46:27.993Z,26.25
2022-08-23T21:48:55.100Z,26.23
2022-08-23T21:51:22.000Z,26.20
2022-08-23T21:53:48.564Z,26.15
2022-08-23T21:56:15.035Z,26.08
2022-08-23T21:58:41.504Z,26.05
2022-08-23T22:01:08.922Z,26.02
2022-08-23T22:03:35.913Z,26.01
2022-08-23T22:06:03.557Z,26.00
2022-08-23T22:08:30.027Z,25.96
2022-08-23T22:10:57.794Z,25.94
2022-08-23T22:13:26.724Z,25.91
2022-08-23T22:15:53.272Z,25.89
2022-08-23T22:18:19.773Z,25.85
2022-08-23T22:20:46.420Z,25.82
2022-08-23T22:23:12.845Z,25.78
2022-08-23T22:25:39.342Z,25.76
2022-08-23T22:28:05.739Z,25.73
2022-08-23T22:30:32.204Z,25.71
2022-08-23T22:32:58.785Z,25.70
2022-08-23T22:35:25.293Z,25.67
2022-08-23T22:38:12.394Z,25.65
2022-08-23T22:40:39.348Z,25.64
2022-08-23T22:43:05.947Z,25.56
2022-08-23T22:45:32.342Z,25.54
2022-08-23T22:47:59.019Z,25.53
2022-08-23T22:50:25.534Z,25.52
2022-08-23T22:52:51.941Z,25.51
2022-08-23T22:55:18.471Z,25.47
2022-08-23T22:57:44.865Z,25.46
2022-08-23T23:00:11.835Z,25.44
2022-08-23T23:02:38.792Z,25.40
2022-08-23T23:05:07.015Z,25.38
2022-08-23T23:07:52.056Z,25.35
2022-08-23T23:10:18.495Z,25.32
2022-08-23T23:12:45.527Z,25.30
2022-08-23T23:15:12.293Z,25.26
2022-08-23T23:17:38.904Z,25.24
2022-08-23T23:20:24.520Z,25.21
2022-08-23T23:22:51.755Z,25.18
2022-08-23T23:25:18.516Z,25.14
2022-08-23T23:27:45.046Z,25.13
2022-08-23T23:30:11.875Z,25.08
2022-08-23T23:32:38.391Z,25.05
2022-08-23T23:35:06.803Z,25.02
2022-08-23T23:37:33.408Z,25.01
2022-08-23T23:39:59.992Z,24.96
2022-08-23T23:42:26.791Z,24.93
2022-08-23T23:44:53.400Z,24.90
2022-08-23T23:47:19.846Z,24.87
2022-08-23T23:49:47.372Z,24.85
2022-08-23T23:52:13.970Z,24.83
2022-08-23T23:54:41.173Z,24.81
2022-08-23T23:57:08.160Z,24.78
2022-08-23T23:59:35.023Z,24.75
